»·PEaware :: N70EU KASE-KTEX

N70EU :: KASE-KTEX

FLIGHT INFORMATION

Flight Status: Arrived
Operator: Privately registered:
United States
More flights under this callsign
Pilot: Anonymous 33184 (33184)
Aircraft: BEECH AIRCRAFT SUPER KING AIR 350
(B350)
More flights by this aircraft type
Origin: KASE Aspen-Pitkin Co/Sardy
United States
Destination: KTEX Telluride Regl
United States
More flights between these airports :: More routes between these airports
Route: LINDZ9 LINDZ SLOLM MTJ ETL
File this flight plan on PilotEdge
Remarks: XP11 Default Scenery
Altitude:
(Current/Filed)
16,000ft
Speed:
(Current/Filed)
291kts
Departed: 03-Aug-23 07:08 PM
Arrived: 03-Aug-23 07:44 PM
Distance/Time
Traveled:
90nm/0:36
Distance/Time
To Go:
Arrived

Flight Plot

Page will automatically refresh every two minutes.

Flight plan parsing failed; only flown route is shown


Map Options




Map Legend


Flown Route
Filed Route
Departure Airport
Arrival Airport
Navaid (VOR, NDB)
Fix

Horizontal Profiles

Position Reports

Time Latitude Longitude Heading Altitude Ground
Speed
03-Aug-23 18:12 39.227725 -106.869455 244 7842ft 0kts
03-Aug-23 18:13 39.227725 -106.869455 244 7842ft 0kts
03-Aug-23 18:14 39.227725 -106.869455 244 7842ft 0kts
03-Aug-23 18:15 39.227725 -106.869455 244 7842ft 0kts
03-Aug-23 18:17 39.227725 -106.869455 244 7842ft 0kts
03-Aug-23 18:18 39.227725 -106.869455 244 7842ft 0kts
03-Aug-23 18:19 39.227725 -106.869455 244 7842ft 0kts
03-Aug-23 18:20 39.227725 -106.869455 244 7842ft 0kts
03-Aug-23 18:21 39.227725 -106.869455 244 7842ft 0kts
03-Aug-23 18:22 39.227725 -106.869455 244 7842ft 0kts
03-Aug-23 18:23 39.227725 -106.869455 244 7842ft 0kts
03-Aug-23 18:24 39.227725 -106.869455 244 7842ft 0kts
03-Aug-23 18:25 39.227725 -106.869455 244 7842ft 0kts
03-Aug-23 18:26 39.227725 -106.869455 244 7842ft 0kts
03-Aug-23 18:27 39.227725 -106.869455 244 7842ft 0kts
03-Aug-23 18:28 39.227725 -106.869455 244 7842ft 0kts
03-Aug-23 18:29 39.227725 -106.869455 244 7842ft 0kts
03-Aug-23 18:30 39.227725 -106.869455 244 7842ft 0kts
03-Aug-23 18:31 39.227725 -106.869455 244 7842ft 0kts
03-Aug-23 18:32 39.227725 -106.869455 244 7842ft 0kts
03-Aug-23 18:33 39.227725 -106.869455 244 7842ft 0kts
03-Aug-23 18:34 39.227725 -106.869455 244 7842ft 0kts
03-Aug-23 18:35 39.227725 -106.869455 244 7842ft 0kts
03-Aug-23 18:36 39.227725 -106.869455 244 7842ft 0kts
03-Aug-23 18:37 39.227725 -106.869455 244 7842ft 0kts
03-Aug-23 18:38 39.227725 -106.869455 244 7842ft 0kts
03-Aug-23 18:39 39.227725 -106.869455 244 7842ft 0kts
03-Aug-23 18:40 39.227725 -106.869455 244 7842ft 0kts
03-Aug-23 18:41 39.227725 -106.869455 244 7842ft 0kts
03-Aug-23 18:41 39.227725 -106.869456 244 7842ft 0kts
03-Aug-23 18:42 39.227725 -106.869456 244 7842ft 0kts
03-Aug-23 18:44 39.227725 -106.869456 244 7842ft 0kts
03-Aug-23 18:45 39.227725 -106.869456 244 7842ft 0kts
03-Aug-23 18:46 39.227725 -106.869456 244 7842ft 0kts
03-Aug-23 18:46 39.227725 -106.869456 244 7842ft 0kts
03-Aug-23 18:47 39.224600 -106.868284 160 7842ft 11kts
03-Aug-23 18:48 39.220008 -106.866103 159 7842ft 21kts
03-Aug-23 18:50 39.215270 -106.863278 171 7842ft 0kts
03-Aug-23 18:51 39.215270 -106.863278 171 7842ft 0kts
03-Aug-23 18:51 39.215270 -106.863278 171 7842ft 0kts
03-Aug-23 18:52 39.215270 -106.863278 171 7842ft 0kts
03-Aug-23 18:53 39.215270 -106.863278 171 7842ft 0kts
03-Aug-23 18:54 39.215270 -106.863278 171 7842ft 0kts
03-Aug-23 18:55 39.215270 -106.863278 171 7842ft 0kts
03-Aug-23 18:56 39.215270 -106.863278 171 7842ft 0kts
03-Aug-23 18:57 39.215270 -106.863278 171 7842ft 0kts
03-Aug-23 18:58 39.215270 -106.863278 171 7842ft 0kts
03-Aug-23 18:59 39.215270 -106.863278 171 7842ft 0kts
03-Aug-23 19:00 39.215270 -106.863278 171 7842ft 0kts
03-Aug-23 19:01 39.215270 -106.863278 171 7842ft 0kts
03-Aug-23 19:02 39.215270 -106.863278 171 7842ft 0kts
03-Aug-23 19:03 39.214776 -106.863314 187 7842ft 9kts
03-Aug-23 19:04 39.212225 -106.862444 173 7842ft 0kts
03-Aug-23 19:05 39.211635 -106.863382 336 7842ft 5kts
03-Aug-23 19:06 39.211822 -106.863453 339 7842ft 0kts
03-Aug-23 19:07 39.235927 -106.875588 339 8052ft 157kts
03-Aug-23 19:08 39.279301 -106.897673 322 9320ft 170kts
03-Aug-23 19:09 39.291575 -106.954412 281 10760ft 166kts
03-Aug-23 19:10 39.302629 -107.012632 283 11992ft 167kts
03-Aug-23 19:11 39.328601 -107.061035 318 13086ft 179kts
03-Aug-23 19:12 39.362067 -107.106050 298 14208ft 174kts
03-Aug-23 19:13 39.379416 -107.161469 252 15216ft 171kts
03-Aug-23 19:14 39.368104 -107.221612 256 16013ft 185kts
03-Aug-23 19:15 39.355477 -107.294132 257 16010ft 227kts
03-Aug-23 19:16 39.340580 -107.379428 257 15997ft 255kts
03-Aug-23 19:17 39.324495 -107.471107 257 15991ft 267kts
03-Aug-23 19:18 39.307927 -107.565110 257 16139ft 266kts
03-Aug-23 19:19 39.266974 -107.637311 200 16148ft 277kts
03-Aug-23 19:20 39.191794 -107.664185 198 16128ft 282kts
03-Aug-23 19:21 39.115853 -107.690498 198 16126ft 283kts
03-Aug-23 19:22 39.040222 -107.716608 198 16127ft 281kts
03-Aug-23 19:23 38.964756 -107.742616 198 16127ft 281kts
03-Aug-23 19:24 38.889381 -107.768526 198 16128ft 281kts
03-Aug-23 19:25 38.814010 -107.794384 197 16128ft 281kts
03-Aug-23 19:26 38.738208 -107.820340 197 15800ft 291kts
03-Aug-23 19:27 38.661299 -107.846597 197 15833ft 284kts
03-Aug-23 19:28 38.588259 -107.880264 210 15848ft 278kts
03-Aug-23 19:29 38.520163 -107.927274 210 15834ft 278kts
03-Aug-23 19:30 38.452254 -107.974452 210 15834ft 278kts
03-Aug-23 19:31 38.384434 -108.021466 210 15845ft 277kts
03-Aug-23 19:32 38.317028 -108.068107 210 15920ft 275kts
03-Aug-23 19:33 38.249733 -108.114573 210 15970ft 275kts
03-Aug-23 19:34 38.182437 -108.160943 210 15974ft 272kts
03-Aug-23 19:35 38.117968 -108.205269 210 14634ft 257kts
03-Aug-23 19:36 38.057240 -108.244468 191 13039ft 241kts
03-Aug-23 19:37 38.009282 -108.193674 121 11948ft 227kts
03-Aug-23 19:38 37.999745 -108.124024 108 11553ft 200kts
03-Aug-23 19:39 37.983799 -108.062452 107 11551ft 177kts
03-Aug-23 19:40 37.972203 -108.003212 103 11016ft 170kts
03-Aug-23 19:41 37.963067 -107.953189 109 9713ft 135kts
03-Aug-23 19:42 37.954640 -107.912371 106 9007ft 92kts
03-Aug-23 19:43 37.952899 -107.901244 12 9057ft 6kts
03-Aug-23 19:44 37.953345 -107.901267 305 9063ft 0kts
03-Aug-23 19:45 37.953345 -107.901267 305 9063ft 0kts
03-Aug-23 19:46 37.953345 -107.901267 305 9063ft 0kts
03-Aug-23 19:47 37.953761 -107.903034 302 9055ft 4kts
03-Aug-23 19:48 37.954018 -107.902776 104 9059ft 0kts
03-Aug-23 19:49 37.954018 -107.902776 104 9059ft 0kts
03-Aug-23 19:50 37.954018 -107.902776 104 9059ft 0kts
03-Aug-23 19:51 37.954018 -107.902776 104 9059ft 0kts
03-Aug-23 19:52 37.954018 -107.902776 104 9059ft 0kts

Navigation Log

Ident Type
Flight plan parsing failed, navigation log unavailable